Weather at 180 Building Helipad

Public forecast

Using degrees Fahrenheit for public forecast. Weather courtesy of forecast.io.

Closest aviation weather report (METAR) to 180 Building Helipad

Report is more than 6 hours old.

Closest report is Long Beach Airport (Daugherty Field), 3.7 nm (6.8 km) NNE. Retrieved 2022/09/17 19:00 UTC (18 days ago):

KLGB 171900Z 17009KT 10SM SCT027 SCT035 24/15 A2985 RMK AO2 T02440150

Closest aviation forecast (TAF) to 180 Building Helipad

Forecast is more than 12 hours old.

Closest forecast is Long Beach Airport (Daugherty Field), 3.7 nm (6.8 km) NNE. Retrieved 2022/09/17 18:42 UTC (18 days ago):

TAF KLGB 171741Z 1718/1818 18008KT P6SM SCT020 BKN030 FM172000 18008KT P6SM SCT035 FM180200 29005KT P6SM SKC FM180500 VRB03KT P6SM OVC015 FM181200 14006KT 6SM -DZ SCT015 OVC025